KNJK/NJK METAR and TAF weather

Enter ICAO airport designator
Station Type Date Time Source
KNJK METAR 2020/03/29 13:56 UTC NOAA

KNJK 291356Z AUTO 27010KT 10SM CLR 11/M01 A3001 RMK AO2 SLP177 T01111011


Station Type Date Time Source
KNJK Decoded METAR 2020/03/29 13:56 UTC NOAA

El Centro, Naval Air Facility, CA, United States (KNJK) 32-49-30N 115-39-38W -13M
Mar 29, 2020 - 09:56 AM EDT / 2020.03.29 1356 UTC
Wind: from the W (270 degrees) at 12 MPH (10 KT):0
Visibility: 10 mile(s):0
Sky conditions: clear
Temperature: 52.0 F (11.1 C)
Dew Point: 30.0 F (-1.1 C)
Relative Humidity: 42%
Pressure (altimeter): 30.01 in. Hg (1016 hPa)
ob: KNJK 291356Z AUTO 27010KT 10SM CLR 11/M01 A3001 RMK AO2 SLP177 T01111011
cycle: 14

Station Type Date Time Source
KNJK TAF 2020/03/26 15:54 UTC NOAA

TAF KNJK 2615/2715 28010KT 9999 FEW060 BKN250 530009 QNH2998INS
FM261630 28018G25KT 9999 FEW060 FEW250 530009 QNH2987INS
TEMPO 2621/2700 26020G30KT
BECMG 2622/2700 27020G35KT 9999 SCT250 530009 QNH2987INS
FM270600 27012KT 9999 SKC WSCONDS 530009 QNH2991INS T20/2623Z T09/2713Z FS30130

Example: see airport list